createdAt,value
2023-03-23T15:57:53.926Z,16.20
2023-03-23T16:00:24.702Z,16.20
2023-03-23T16:02:58.367Z,16.30
2023-03-23T16:05:26.824Z,16.20
2023-03-23T16:07:55.816Z,16.20
2023-03-23T16:10:27.485Z,16.30
2023-03-23T16:12:55.887Z,16.40
2023-03-23T16:15:24.549Z,16.30
2023-03-23T16:17:53.082Z,16.20
2023-03-23T16:20:24.043Z,16.10
2023-03-23T16:22:53.511Z,16.00
2023-03-23T16:25:22.047Z,16.00
2023-03-23T16:27:52.810Z,15.90
2023-03-23T16:30:23.848Z,15.80
2023-03-23T16:32:53.626Z,15.80
2023-03-23T16:35:23.758Z,15.70
2023-03-23T16:38:07.821Z,15.70
2023-03-23T16:40:38.081Z,15.70
2023-03-23T16:43:09.028Z,15.50
2023-03-23T16:45:39.683Z,15.50
2023-03-23T16:48:10.662Z,15.60
2023-03-23T16:50:39.887Z,15.70
2023-03-23T16:53:09.733Z,15.80
2023-03-23T16:55:38.950Z,15.60
2023-03-23T16:58:16.902Z,15.70
2023-03-23T17:00:48.129Z,15.70
2023-03-23T17:03:17.216Z,15.60
2023-03-23T17:05:46.250Z,15.60
2023-03-23T17:08:14.945Z,15.60
2023-03-23T17:10:43.774Z,15.50
2023-03-23T17:13:13.562Z,15.50
2023-03-23T17:15:46.058Z,15.50
2023-03-23T17:18:16.371Z,15.60
2023-03-23T17:20:45.236Z,15.40
2023-03-23T17:23:13.537Z,15.40
2023-03-23T17:25:42.240Z,15.50
2023-03-23T17:28:10.832Z,15.50
2023-03-23T17:30:43.227Z,15.40
2023-03-23T17:33:12.361Z,15.30
2023-03-23T17:35:41.091Z,15.30
2023-03-23T17:38:09.501Z,15.20
2023-03-23T17:40:37.876Z,15.20
2023-03-23T17:43:07.045Z,15.00
2023-03-23T17:45:36.516Z,15.00
2023-03-23T17:48:07.808Z,15.00
2023-03-23T17:50:37.083Z,14.90
2023-03-23T17:53:05.971Z,14.90
2023-03-23T17:55:34.454Z,14.80
2023-03-23T17:58:02.847Z,14.80
2023-03-23T18:00:31.325Z,14.70
2023-03-23T18:02:59.839Z,14.70
2023-03-23T18:05:29.582Z,14.70
2023-03-23T18:07:58.235Z,14.70
2023-03-23T18:10:26.652Z,14.70
2023-03-23T18:12:55.012Z,14.60
2023-03-23T18:15:28.953Z,14.50
2023-03-23T18:17:58.389Z,14.60
2023-03-23T18:20:27.728Z,14.60
2023-03-23T18:22:57.725Z,14.50
2023-03-23T18:25:26.556Z,14.50
2023-03-23T18:27:54.880Z,14.50
2023-03-23T18:30:23.414Z,14.60
2023-03-23T18:32:51.899Z,14.50
2023-03-23T18:35:20.516Z,14.60
2023-03-23T18:37:48.944Z,14.60
2023-03-23T18:40:19.936Z,14.50
2023-03-23T18:42:49.149Z,14.50
2023-03-23T18:45:17.724Z,14.50
2023-03-23T18:47:46.238Z,14.50
2023-03-23T18:50:14.598Z,14.50
2023-03-23T18:52:42.948Z,14.40
2023-03-23T18:55:11.796Z,14.30
2023-03-23T18:57:41.667Z,14.30
2023-03-23T19:00:11.184Z,14.30
2023-03-23T19:02:40.009Z,14.40
2023-03-23T19:05:08.944Z,14.30
2023-03-23T19:07:38.283Z,14.30
2023-03-23T19:10:07.651Z,14.40
2023-03-23T19:12:36.019Z,14.30
2023-03-23T19:15:06.682Z,14.30
2023-03-23T19:17:35.037Z,14.20
2023-03-23T19:20:05.073Z,14.10
2023-03-23T19:22:33.885Z,14.10
2023-03-23T19:25:02.230Z,14.10
2023-03-23T19:27:31.382Z,14.20
2023-03-23T19:29:59.711Z,14.10
2023-03-23T19:32:29.739Z,14.10
2023-03-23T19:34:59.217Z,14.00
2023-03-23T19:37:27.811Z,14.10
2023-03-23T19:39:56.311Z,14.10
2023-03-23T19:42:24.702Z,14.10
2023-03-23T19:44:52.975Z,14.10
2023-03-23T19:47:22.320Z,14.00
2023-03-23T19:49:52.172Z,14.00
2023-03-23T19:52:20.917Z,13.90
2023-03-23T19:54:49.202Z,13.80
2023-03-23T19:57:17.595Z,13.80
2023-03-23T19:59:46.109Z,13.90
2023-03-23T20:02:15.194Z,13.80
2023-03-23T20:04:45.535Z,13.80
2023-03-23T20:07:15.837Z,13.80
2023-03-23T20:09:44.765Z,13.70
2023-03-23T20:12:13.142Z,13.70
2023-03-23T20:14:44.327Z,13.70
2023-03-23T20:17:14.499Z,13.60
2023-03-23T20:19:43.048Z,13.60
2023-03-23T20:22:11.543Z,13.60
2023-03-23T20:24:42.236Z,13.50
2023-03-23T20:27:11.478Z,13.50
2023-03-23T20:29:39.837Z,13.40
2023-03-23T20:32:08.554Z,13.30
2023-03-23T20:34:37.148Z,13.20
2023-03-23T20:37:05.485Z,13.20
2023-03-23T20:39:34.694Z,13.20
2023-03-23T20:42:06.460Z,13.20
2023-03-23T20:44:36.080Z,13.20
2023-03-23T20:47:04.904Z,13.10
2023-03-23T20:49:37.088Z,13.10
2023-03-23T20:52:08.245Z,13.00
2023-03-23T20:54:37.966Z,13.00
2023-03-23T20:57:08.447Z,12.90
2023-03-23T20:59:36.998Z,12.80
2023-03-23T21:02:06.251Z,12.80
2023-03-23T21:04:37.192Z,12.80
2023-03-23T21:07:05.836Z,12.90
2023-03-23T21:09:34.171Z,12.80
2023-03-23T21:12:06.189Z,12.80
2023-03-23T21:14:36.653Z,12.80
2023-03-23T21:17:05.555Z,12.70
2023-03-23T21:19:34.137Z,12.70
2023-03-23T21:22:02.521Z,12.70
2023-03-23T21:24:32.326Z,12.60
2023-03-23T21:27:02.806Z,12.70
2023-03-23T21:29:31.395Z,12.70
2023-03-23T21:32:08.086Z,12.70
2023-03-23T21:34:37.826Z,12.60
2023-03-23T21:37:06.507Z,12.60
2023-03-23T21:39:35.604Z,12.60
2023-03-23T21:42:05.332Z,12.50
2023-03-23T21:44:35.379Z,12.40
2023-03-23T21:47:05.445Z,12.40
2023-03-23T21:49:33.762Z,12.40
2023-03-23T21:52:02.287Z,12.40
2023-03-23T21:54:31.957Z,12.50
2023-03-23T21:57:00.446Z,12.40
2023-03-23T21:59:29.430Z,12.40
2023-03-23T22:01:59.062Z,12.40
2023-03-23T22:04:47.615Z,12.40
2023-03-23T22:07:39.100Z,12.40
2023-03-23T22:10:19.545Z,12.40
2023-03-23T22:12:49.792Z,12.30
2023-03-23T22:15:18.271Z,12.30
2023-03-23T22:17:46.679Z,12.30
2023-03-23T22:20:17.490Z,12.40
2023-03-23T22:22:45.907Z,12.30
2023-03-23T22:25:14.521Z,12.30
2023-03-23T22:27:42.973Z,12.30
2023-03-23T22:30:12.691Z,12.30
2023-03-23T22:32:41.467Z,12.30
2023-03-23T22:35:12.575Z,12.40
2023-03-23T22:37:42.428Z,12.40
2023-03-23T22:40:11.423Z,12.40
2023-03-23T22:42:39.808Z,12.40
2023-03-23T22:45:09.660Z,12.50
2023-03-23T22:47:39.262Z,12.50
2023-03-23T22:50:09.602Z,12.60
2023-03-23T22:52:38.746Z,12.60
2023-03-23T22:55:09.813Z,12.60
2023-03-23T22:57:38.237Z,12.50
2023-03-23T23:00:14.900Z,12.50
2023-03-23T23:02:44.826Z,12.50
2023-03-23T23:05:14.317Z,12.50
2023-03-23T23:07:42.832Z,12.60
2023-03-23T23:10:12.669Z,12.60
2023-03-23T23:12:42.419Z,12.50
2023-03-23T23:15:14.494Z,12.50
2023-03-23T23:17:43.321Z,12.50
2023-03-23T23:20:14.176Z,12.60
2023-03-23T23:22:44.507Z,12.60
2023-03-23T23:25:14.902Z,12.60
2023-03-23T23:27:43.262Z,12.60
2023-03-23T23:30:13.496Z,12.60
2023-03-23T23:32:42.963Z,12.60
2023-03-23T23:35:12.941Z,12.60
2023-03-23T23:37:41.391Z,12.70
2023-03-23T23:40:10.853Z,12.70
2023-03-23T23:42:40.717Z,12.70
2023-03-23T23:45:10.313Z,12.60
2023-03-23T23:47:38.762Z,12.70
2023-03-23T23:50:08.998Z,12.70
2023-03-23T23:52:39.012Z,12.60
2023-03-23T23:55:09.636Z,12.60
2023-03-23T23:57:38.406Z,12.60
